sensor_id;sensor_type;location;lat;lon;timestamp;P1;durP1;ratioP1;P2;durP2;ratioP2
14584;SDS011;7379;51.506;11.876;2023-02-28T00:01:22;4.33;;;3.73;;
14584;SDS011;7379;51.506;11.876;2023-02-28T00:03:49;5.43;;;4.70;;
14584;SDS011;7379;51.506;11.876;2023-02-28T00:06:16;5.13;;;3.73;;
14584;SDS011;7379;51.506;11.876;2023-02-28T00:08:43;5.00;;;4.20;;
14584;SDS011;7379;51.506;11.876;2023-02-28T00:11:12;4.90;;;4.03;;
14584;SDS011;7379;51.506;11.876;2023-02-28T00:13:41;5.37;;;4.03;;
14584;SDS011;7379;51.506;11.876;2023-02-28T00:16:12;8.07;;;4.47;;
14584;SDS011;7379;51.506;11.876;2023-02-28T00:18:41;5.10;;;3.97;;
14584;SDS011;7379;51.506;11.876;2023-02-28T00:21:08;3.87;;;3.37;;
14584;SDS011;7379;51.506;11.876;2023-02-28T00:23:35;4.67;;;3.90;;
14584;SDS011;7379;51.506;11.876;2023-02-28T00:26:02;4.73;;;3.80;;
14584;SDS011;7379;51.506;11.876;2023-02-28T00:28:31;4.90;;;3.57;;
14584;SDS011;7379;51.506;11.876;2023-02-28T00:30:58;4.47;;;3.70;;
14584;SDS011;7379;51.506;11.876;2023-02-28T00:33:26;4.20;;;3.67;;
14584;SDS011;7379;51.506;11.876;2023-02-28T00:36:00;5.00;;;3.77;;
14584;SDS011;7379;51.506;11.876;2023-02-28T00:38:28;5.43;;;3.93;;
14584;SDS011;7379;51.506;11.876;2023-02-28T00:40:55;4.23;;;3.57;;
14584;SDS011;7379;51.506;11.876;2023-02-28T00:43:23;5.30;;;3.73;;
14584;SDS011;7379;51.506;11.876;2023-02-28T00:45:51;4.43;;;3.70;;
14584;SDS011;7379;51.506;11.876;2023-02-28T00:48:18;4.63;;;3.70;;
14584;SDS011;7379;51.506;11.876;2023-02-28T00:50:47;4.67;;;3.20;;
14584;SDS011;7379;51.506;11.876;2023-02-28T00:53:15;4.97;;;3.50;;
14584;SDS011;7379;51.506;11.876;2023-02-28T00:55:42;4.77;;;3.50;;
14584;SDS011;7379;51.506;11.876;2023-02-28T00:58:09;4.23;;;3.70;;
14584;SDS011;7379;51.506;11.876;2023-02-28T01:00:35;5.63;;;4.00;;
14584;SDS011;7379;51.506;11.876;2023-02-28T01:03:04;5.13;;;3.70;;
14584;SDS011;7379;51.506;11.876;2023-02-28T01:05:30;4.03;;;3.53;;
14584;SDS011;7379;51.506;11.876;2023-02-28T01:07:57;4.47;;;3.53;;
14584;SDS011;7379;51.506;11.876;2023-02-28T01:10:24;5.00;;;3.73;;
14584;SDS011;7379;51.506;11.876;2023-02-28T01:12:51;4.43;;;3.20;;
14584;SDS011;7379;51.506;11.876;2023-02-28T01:15:18;4.80;;;3.57;;
14584;SDS011;7379;51.506;11.876;2023-02-28T01:17:45;4.50;;;3.60;;
14584;SDS011;7379;51.506;11.876;2023-02-28T01:20:13;4.97;;;3.83;;
14584;SDS011;7379;51.506;11.876;2023-02-28T01:22:40;5.03;;;4.13;;
14584;SDS011;7379;51.506;11.876;2023-02-28T01:25:07;4.77;;;3.83;;
14584;SDS011;7379;51.506;11.876;2023-02-28T01:27:34;4.67;;;3.60;;
14584;SDS011;7379;51.506;11.876;2023-02-28T01:30:01;6.07;;;4.23;;
14584;SDS011;7379;51.506;11.876;2023-02-28T01:32:29;4.60;;;3.80;;
14584;SDS011;7379;51.506;11.876;2023-02-28T01:34:55;5.47;;;3.90;;
14584;SDS011;7379;51.506;11.876;2023-02-28T01:37:24;5.23;;;3.80;;
14584;SDS011;7379;51.506;11.876;2023-02-28T01:39:50;4.87;;;4.03;;
14584;SDS011;7379;51.506;11.876;2023-02-28T01:42:17;5.70;;;3.90;;
14584;SDS011;7379;51.506;11.876;2023-02-28T01:44:55;5.17;;;3.83;;
14584;SDS011;7379;51.506;11.876;2023-02-28T01:47:25;5.57;;;4.20;;
14584;SDS011;7379;51.506;11.876;2023-02-28T01:50:07;5.27;;;3.73;;
14584;SDS011;7379;51.506;11.876;2023-02-28T01:52:38;5.70;;;4.03;;
14584;SDS011;7379;51.506;11.876;2023-02-28T01:55:06;5.20;;;3.93;;
14584;SDS011;7379;51.506;11.876;2023-02-28T01:57:35;5.30;;;3.90;;
14584;SDS011;7379;51.506;11.876;2023-02-28T02:00:05;6.07;;;4.10;;
14584;SDS011;7379;51.506;11.876;2023-02-28T02:02:35;5.20;;;3.83;;
14584;SDS011;7379;51.506;11.876;2023-02-28T02:05:04;4.97;;;3.73;;
14584;SDS011;7379;51.506;11.876;2023-02-28T02:07:35;4.20;;;3.67;;
14584;SDS011;7379;51.506;11.876;2023-02-28T02:10:05;5.50;;;3.87;;
14584;SDS011;7379;51.506;11.876;2023-02-28T02:12:43;4.40;;;3.67;;
14584;SDS011;7379;51.506;11.876;2023-02-28T02:15:30;4.20;;;3.53;;
14584;SDS011;7379;51.506;11.876;2023-02-28T02:18:01;4.53;;;3.50;;
14584;SDS011;7379;51.506;11.876;2023-02-28T02:20:49;4.03;;;3.23;;
14584;SDS011;7379;51.506;11.876;2023-02-28T02:23:57;5.33;;;3.73;;
14584;SDS011;7379;51.506;11.876;2023-02-28T02:26:49;4.37;;;3.60;;
14584;SDS011;7379;51.506;11.876;2023-02-28T02:32:41;4.40;;;3.33;;
14584;SDS011;7379;51.506;11.876;2023-02-28T02:35:39;4.30;;;3.30;;
14584;SDS011;7379;51.506;11.876;2023-02-28T02:38:14;4.07;;;3.30;;
14584;SDS011;7379;51.506;11.876;2023-02-28T02:40:47;4.57;;;3.17;;
14584;SDS011;7379;51.506;11.876;2023-02-28T02:43:27;4.73;;;3.40;;
14584;SDS011;7379;51.506;11.876;2023-02-28T02:45:59;4.13;;;3.40;;
14584;SDS011;7379;51.506;11.876;2023-02-28T02:48:32;4.00;;;3.50;;
14584;SDS011;7379;51.506;11.876;2023-02-28T02:51:04;3.57;;;3.03;;
14584;SDS011;7379;51.506;11.876;2023-02-28T02:53:37;3.67;;;3.03;;
14584;SDS011;7379;51.506;11.876;2023-02-28T02:56:11;3.80;;;3.20;;
14584;SDS011;7379;51.506;11.876;2023-02-28T02:58:40;5.00;;;3.30;;
14584;SDS011;7379;51.506;11.876;2023-02-28T03:01:10;4.07;;;3.10;;
14584;SDS011;7379;51.506;11.876;2023-02-28T03:03:39;3.90;;;3.10;;
14584;SDS011;7379;51.506;11.876;2023-02-28T03:06:08;3.50;;;3.00;;
14584;SDS011;7379;51.506;11.876;2023-02-28T03:08:35;3.30;;;3.00;;
14584;SDS011;7379;51.506;11.876;2023-02-28T03:11:04;3.40;;;3.10;;
14584;SDS011;7379;51.506;11.876;2023-02-28T03:13:52;3.50;;;2.93;;
14584;SDS011;7379;51.506;11.876;2023-02-28T03:16:29;3.43;;;3.10;;
14584;SDS011;7379;51.506;11.876;2023-02-28T03:19:03;4.30;;;2.90;;
14584;SDS011;7379;51.506;11.876;2023-02-28T03:21:52;4.40;;;3.20;;
14584;SDS011;7379;51.506;11.876;2023-02-28T03:24:29;3.60;;;3.30;;
14584;SDS011;7379;51.506;11.876;2023-02-28T03:27:04;3.30;;;3.00;;
14584;SDS011;7379;51.506;11.876;2023-02-28T03:29:34;3.87;;;3.10;;
14584;SDS011;7379;51.506;11.876;2023-02-28T03:32:04;4.90;;;3.17;;
14584;SDS011;7379;51.506;11.876;2023-02-28T03:34:39;3.87;;;2.93;;
14584;SDS011;7379;51.506;11.876;2023-02-28T03:37:14;3.73;;;2.93;;
14584;SDS011;7379;51.506;11.876;2023-02-28T03:39:44;3.73;;;3.30;;
14584;SDS011;7379;51.506;11.876;2023-02-28T03:42:15;3.50;;;2.77;;
14584;SDS011;7379;51.506;11.876;2023-02-28T03:44:48;3.30;;;3.00;;
14584;SDS011;7379;51.506;11.876;2023-02-28T03:47:19;3.80;;;3.07;;
14584;SDS011;7379;51.506;11.876;2023-02-28T03:49:52;3.23;;;2.93;;
14584;SDS011;7379;51.506;11.876;2023-02-28T03:52:22;4.03;;;3.27;;
14584;SDS011;7379;51.506;11.876;2023-02-28T03:54:53;3.97;;;3.20;;
14584;SDS011;7379;51.506;11.876;2023-02-28T03:57:25;3.90;;;3.20;;
14584;SDS011;7379;51.506;11.876;2023-02-28T03:59:59;3.57;;;3.27;;
14584;SDS011;7379;51.506;11.876;2023-02-28T04:02:30;4.60;;;3.30;;
14584;SDS011;7379;51.506;11.876;2023-02-28T04:04:57;3.60;;;3.30;;
14584;SDS011;7379;51.506;11.876;2023-02-28T04:07:29;4.27;;;3.00;;
14584;SDS011;7379;51.506;11.876;2023-02-28T04:09:57;3.70;;;3.20;;
14584;SDS011;7379;51.506;11.876;2023-02-28T04:12:24;4.17;;;3.30;;
14584;SDS011;7379;51.506;11.876;2023-02-28T04:14:51;4.13;;;3.30;;
14584;SDS011;7379;51.506;11.876;2023-02-28T04:17:18;3.90;;;3.50;;
14584;SDS011;7379;51.506;11.876;2023-02-28T04:19:45;3.97;;;3.10;;
14584;SDS011;7379;51.506;11.876;2023-02-28T04:22:11;3.97;;;3.10;;
14584;SDS011;7379;51.506;11.876;2023-02-28T04:24:40;4.57;;;3.33;;
14584;SDS011;7379;51.506;11.876;2023-02-28T04:27:08;3.50;;;3.00;;
14584;SDS011;7379;51.506;11.876;2023-02-28T04:29:35;4.27;;;3.10;;
14584;SDS011;7379;51.506;11.876;2023-02-28T04:32:02;4.10;;;3.23;;
14584;SDS011;7379;51.506;11.876;2023-02-28T04:34:30;4.47;;;3.27;;
14584;SDS011;7379;51.506;11.876;2023-02-28T04:36:58;6.47;;;3.33;;
14584;SDS011;7379;51.506;11.876;2023-02-28T04:39:25;4.33;;;3.30;;
14584;SDS011;7379;51.506;11.876;2023-02-28T04:41:53;3.60;;;3.07;;
14584;SDS011;7379;51.506;11.876;2023-02-28T04:44:20;4.57;;;3.10;;
14584;SDS011;7379;51.506;11.876;2023-02-28T04:46:47;4.40;;;3.47;;
14584;SDS011;7379;51.506;11.876;2023-02-28T04:49:15;4.97;;;3.40;;
14584;SDS011;7379;51.506;11.876;2023-02-28T04:51:42;4.17;;;3.20;;
14584;SDS011;7379;51.506;11.876;2023-02-28T04:54:09;4.53;;;3.33;;
14584;SDS011;7379;51.506;11.876;2023-02-28T04:56:36;4.13;;;3.23;;
14584;SDS011;7379;51.506;11.876;2023-02-28T04:59:04;3.80;;;3.17;;
14584;SDS011;7379;51.506;11.876;2023-02-28T05:01:32;5.13;;;3.50;;
14584;SDS011;7379;51.506;11.876;2023-02-28T05:04:01;4.60;;;3.40;;
14584;SDS011;7379;51.506;11.876;2023-02-28T05:06:29;4.03;;;3.33;;
14584;SDS011;7379;51.506;11.876;2023-02-28T05:08:57;5.17;;;3.77;;
14584;SDS011;7379;51.506;11.876;2023-02-28T05:11:25;4.13;;;3.40;;
14584;SDS011;7379;51.506;11.876;2023-02-28T05:13:54;3.50;;;3.20;;
14584;SDS011;7379;51.506;11.876;2023-02-28T05:16:22;4.30;;;3.07;;
14584;SDS011;7379;51.506;11.876;2023-02-28T05:18:49;4.50;;;3.40;;
14584;SDS011;7379;51.506;11.876;2023-02-28T05:21:22;4.67;;;3.30;;
14584;SDS011;7379;51.506;11.876;2023-02-28T05:23:51;3.10;;;2.80;;
14584;SDS011;7379;51.506;11.876;2023-02-28T05:26:18;3.87;;;3.30;;
14584;SDS011;7379;51.506;11.876;2023-02-28T05:28:45;4.00;;;3.50;;
14584;SDS011;7379;51.506;11.876;2023-02-28T05:31:12;4.67;;;3.30;;
14584;SDS011;7379;51.506;11.876;2023-02-28T05:33:40;3.57;;;3.17;;
14584;SDS011;7379;51.506;11.876;2023-02-28T05:36:07;3.30;;;3.00;;
14584;SDS011;7379;51.506;11.876;2023-02-28T05:38:35;3.93;;;3.20;;
14584;SDS011;7379;51.506;11.876;2023-02-28T05:41:04;4.73;;;3.47;;
14584;SDS011;7379;51.506;11.876;2023-02-28T05:43:32;4.87;;;3.50;;
14584;SDS011;7379;51.506;11.876;2023-02-28T05:45:59;5.13;;;3.50;;
14584;SDS011;7379;51.506;11.876;2023-02-28T05:48:28;4.70;;;3.40;;
14584;SDS011;7379;51.506;11.876;2023-02-28T05:50:56;3.60;;;3.30;;
14584;SDS011;7379;51.506;11.876;2023-02-28T05:53:23;4.77;;;3.43;;
14584;SDS011;7379;51.506;11.876;2023-02-28T05:55:51;4.37;;;3.80;;
14584;SDS011;7379;51.506;11.876;2023-02-28T05:58:18;4.20;;;3.40;;
14584;SDS011;7379;51.506;11.876;2023-02-28T06:00:44;4.87;;;3.63;;
14584;SDS011;7379;51.506;11.876;2023-02-28T06:03:11;5.40;;;3.70;;
14584;SDS011;7379;51.506;11.876;2023-02-28T06:05:38;4.23;;;3.70;;
14584;SDS011;7379;51.506;11.876;2023-02-28T06:08:06;4.93;;;3.80;;
14584;SDS011;7379;51.506;11.876;2023-02-28T06:10:33;3.93;;;3.50;;
14584;SDS011;7379;51.506;11.876;2023-02-28T06:13:00;5.53;;;3.80;;
14584;SDS011;7379;51.506;11.876;2023-02-28T06:15:28;4.47;;;3.30;;
14584;SDS011;7379;51.506;11.876;2023-02-28T06:17:55;4.87;;;3.67;;
14584;SDS011;7379;51.506;11.876;2023-02-28T06:20:23;4.90;;;3.60;;
14584;SDS011;7379;51.506;11.876;2023-02-28T06:22:51;5.03;;;3.53;;
14584;SDS011;7379;51.506;11.876;2023-02-28T06:25:20;3.97;;;3.37;;
14584;SDS011;7379;51.506;11.876;2023-02-28T06:27:47;5.37;;;4.00;;
14584;SDS011;7379;51.506;11.876;2023-02-28T06:30:14;4.47;;;3.60;;
14584;SDS011;7379;51.506;11.876;2023-02-28T06:32:41;5.40;;;3.80;;
14584;SDS011;7379;51.506;11.876;2023-02-28T06:35:08;4.90;;;3.63;;
14584;SDS011;7379;51.506;11.876;2023-02-28T06:37:35;5.23;;;3.63;;
14584;SDS011;7379;51.506;11.876;2023-02-28T06:40:02;5.43;;;3.90;;
14584;SDS011;7379;51.506;11.876;2023-02-28T06:42:34;4.80;;;3.70;;
14584;SDS011;7379;51.506;11.876;2023-02-28T06:45:01;6.60;;;4.00;;
14584;SDS011;7379;51.506;11.876;2023-02-28T06:47:34;5.07;;;3.80;;
14584;SDS011;7379;51.506;11.876;2023-02-28T06:50:01;5.10;;;4.13;;
14584;SDS011;7379;51.506;11.876;2023-02-28T06:52:29;4.93;;;3.93;;
14584;SDS011;7379;51.506;11.876;2023-02-28T06:54:56;5.47;;;3.83;;
14584;SDS011;7379;51.506;11.876;2023-02-28T06:57:27;5.40;;;3.67;;
14584;SDS011;7379;51.506;11.876;2023-02-28T06:59:57;4.90;;;3.90;;
14584;SDS011;7379;51.506;11.876;2023-02-28T07:02:24;4.20;;;3.80;;
14584;SDS011;7379;51.506;11.876;2023-02-28T07:04:51;5.67;;;4.00;;
14584;SDS011;7379;51.506;11.876;2023-02-28T07:07:18;5.20;;;3.90;;
14584;SDS011;7379;51.506;11.876;2023-02-28T07:09:45;4.87;;;3.70;;
14584;SDS011;7379;51.506;11.876;2023-02-28T07:12:12;4.50;;;3.97;;
14584;SDS011;7379;51.506;11.876;2023-02-28T07:14:38;4.30;;;3.70;;
14584;SDS011;7379;51.506;11.876;2023-02-28T07:17:07;4.90;;;4.00;;
14584;SDS011;7379;51.506;11.876;2023-02-28T07:19:37;4.70;;;4.20;;
14584;SDS011;7379;51.506;11.876;2023-02-28T07:22:03;4.83;;;4.00;;
14584;SDS011;7379;51.506;11.876;2023-02-28T07:24:30;4.10;;;3.70;;
14584;SDS011;7379;51.506;11.876;2023-02-28T07:26:57;5.00;;;4.10;;
14584;SDS011;7379;51.506;11.876;2023-02-28T07:29:25;5.73;;;3.93;;
14584;SDS011;7379;51.506;11.876;2023-02-28T07:31:52;5.53;;;4.10;;
14584;SDS011;7379;51.506;11.876;2023-02-28T07:34:20;5.20;;;3.87;;
14584;SDS011;7379;51.506;11.876;2023-02-28T07:36:48;4.83;;;4.17;;
14584;SDS011;7379;51.506;11.876;2023-02-28T07:39:18;7.10;;;3.87;;
14584;SDS011;7379;51.506;11.876;2023-02-28T07:41:45;5.87;;;3.80;;
14584;SDS011;7379;51.506;11.876;2023-02-28T07:44:12;5.30;;;4.10;;
14584;SDS011;7379;51.506;11.876;2023-02-28T07:46:39;5.73;;;4.27;;
14584;SDS011;7379;51.506;11.876;2023-02-28T07:49:06;5.27;;;3.97;;
14584;SDS011;7379;51.506;11.876;2023-02-28T07:51:34;5.47;;;3.90;;
14584;SDS011;7379;51.506;11.876;2023-02-28T07:54:01;5.13;;;4.10;;
14584;SDS011;7379;51.506;11.876;2023-02-28T07:56:28;5.83;;;4.50;;
14584;SDS011;7379;51.506;11.876;2023-02-28T07:58:55;6.03;;;4.23;;
14584;SDS011;7379;51.506;11.876;2023-02-28T08:01:22;5.17;;;4.07;;
14584;SDS011;7379;51.506;11.876;2023-02-28T08:03:49;4.83;;;3.87;;
14584;SDS011;7379;51.506;11.876;2023-02-28T08:06:16;4.60;;;4.03;;
14584;SDS011;7379;51.506;11.876;2023-02-28T08:08:46;4.97;;;4.07;;
14584;SDS011;7379;51.506;11.876;2023-02-28T08:11:13;4.43;;;3.90;;
14584;SDS011;7379;51.506;11.876;2023-02-28T08:13:41;6.83;;;4.00;;
14584;SDS011;7379;51.506;11.876;2023-02-28T08:16:09;7.47;;;4.20;;
14584;SDS011;7379;51.506;11.876;2023-02-28T08:18:36;4.90;;;3.63;;
14584;SDS011;7379;51.506;11.876;2023-02-28T08:21:05;4.43;;;3.67;;
14584;SDS011;7379;51.506;11.876;2023-02-28T08:23:33;5.67;;;4.13;;
14584;SDS011;7379;51.506;11.876;2023-02-28T08:26:01;6.03;;;4.37;;
14584;SDS011;7379;51.506;11.876;2023-02-28T08:28:29;5.57;;;4.30;;
14584;SDS011;7379;51.506;11.876;2023-02-28T08:30:56;5.37;;;4.33;;
14584;SDS011;7379;51.506;11.876;2023-02-28T08:33:23;5.13;;;3.80;;
14584;SDS011;7379;51.506;11.876;2023-02-28T08:35:52;5.37;;;4.13;;
14584;SDS011;7379;51.506;11.876;2023-02-28T08:38:20;5.20;;;3.87;;
14584;SDS011;7379;51.506;11.876;2023-02-28T08:40:47;5.80;;;4.20;;
14584;SDS011;7379;51.506;11.876;2023-02-28T08:43:15;5.63;;;4.00;;
14584;SDS011;7379;51.506;11.876;2023-02-28T08:45:42;6.00;;;4.20;;
14584;SDS011;7379;51.506;11.876;2023-02-28T08:48:09;4.97;;;4.03;;
14584;SDS011;7379;51.506;11.876;2023-02-28T08:50:35;5.87;;;4.20;;
14584;SDS011;7379;51.506;11.876;2023-02-28T08:53:02;6.10;;;4.00;;
14584;SDS011;7379;51.506;11.876;2023-02-28T08:55:29;6.73;;;4.20;;
14584;SDS011;7379;51.506;11.876;2023-02-28T08:57:56;5.93;;;4.60;;
14584;SDS011;7379;51.506;11.876;2023-02-28T09:00:24;5.73;;;4.40;;
14584;SDS011;7379;51.506;11.876;2023-02-28T09:02:51;5.60;;;4.17;;
14584;SDS011;7379;51.506;11.876;2023-02-28T09:05:19;5.40;;;4.60;;
14584;SDS011;7379;51.506;11.876;2023-02-28T09:07:46;5.07;;;4.23;;
14584;SDS011;7379;51.506;11.876;2023-02-28T09:10:13;4.83;;;4.00;;
14584;SDS011;7379;51.506;11.876;2023-02-28T09:12:40;5.63;;;4.03;;
14584;SDS011;7379;51.506;11.876;2023-02-28T09:15:07;5.40;;;4.30;;
14584;SDS011;7379;51.506;11.876;2023-02-28T09:17:36;4.67;;;4.10;;
14584;SDS011;7379;51.506;11.876;2023-02-28T09:20:03;4.97;;;4.20;;
14584;SDS011;7379;51.506;11.876;2023-02-28T09:22:30;4.57;;;3.73;;
14584;SDS011;7379;51.506;11.876;2023-02-28T09:24:57;5.20;;;4.13;;
14584;SDS011;7379;51.506;11.876;2023-02-28T09:27:24;4.93;;;4.00;;
14584;SDS011;7379;51.506;11.876;2023-02-28T09:29:51;6.13;;;4.37;;
14584;SDS011;7379;51.506;11.876;2023-02-28T09:32:17;5.53;;;4.50;;
14584;SDS011;7379;51.506;11.876;2023-02-28T09:34:46;5.50;;;4.57;;
14584;SDS011;7379;51.506;11.876;2023-02-28T09:37:12;5.63;;;4.43;;
14584;SDS011;7379;51.506;11.876;2023-02-28T09:39:39;4.70;;;4.20;;
14584;SDS011;7379;51.506;11.876;2023-02-28T09:42:06;5.13;;;4.60;;
14584;SDS011;7379;51.506;11.876;2023-02-28T09:44:44;5.50;;;4.50;;
14584;SDS011;7379;51.506;11.876;2023-02-28T09:47:24;6.50;;;4.60;;
14584;SDS011;7379;51.506;11.876;2023-02-28T09:49:57;7.13;;;4.60;;
14584;SDS011;7379;51.506;11.876;2023-02-28T09:52:29;5.43;;;4.50;;
14584;SDS011;7379;51.506;11.876;2023-02-28T09:54:59;6.40;;;4.47;;
14584;SDS011;7379;51.506;11.876;2023-02-28T09:57:42;5.13;;;4.30;;
14584;SDS011;7379;51.506;11.876;2023-02-28T10:00:12;5.97;;;4.23;;
14584;SDS011;7379;51.506;11.876;2023-02-28T10:02:57;5.23;;;4.50;;
14584;SDS011;7379;51.506;11.876;2023-02-28T10:05:33;5.10;;;4.13;;
14584;SDS011;7379;51.506;11.876;2023-02-28T10:08:07;5.37;;;4.40;;
14584;SDS011;7379;51.506;11.876;2023-02-28T10:10:39;5.27;;;4.13;;
14584;SDS011;7379;51.506;11.876;2023-02-28T10:13:12;5.13;;;4.10;;
14584;SDS011;7379;51.506;11.876;2023-02-28T10:15:44;7.83;;;4.17;;
14584;SDS011;7379;51.506;11.876;2023-02-28T10:18:14;4.93;;;4.03;;
14584;SDS011;7379;51.506;11.876;2023-02-28T10:20:48;4.70;;;4.03;;
14584;SDS011;7379;51.506;11.876;2023-02-28T10:23:17;5.00;;;4.20;;
14584;SDS011;7379;51.506;11.876;2023-02-28T10:25:49;5.83;;;4.30;;
14584;SDS011;7379;51.506;11.876;2023-02-28T10:28:21;4.90;;;4.00;;
14584;SDS011;7379;51.506;11.876;2023-02-28T10:30:48;6.00;;;4.27;;
14584;SDS011;7379;51.506;11.876;2023-02-28T10:33:18;5.13;;;3.83;;
14584;SDS011;7379;51.506;11.876;2023-02-28T10:35:49;6.03;;;4.03;;
14584;SDS011;7379;51.506;11.876;2023-02-28T10:38:17;5.57;;;3.93;;
14584;SDS011;7379;51.506;11.876;2023-02-28T10:40:46;5.23;;;3.83;;
14584;SDS011;7379;51.506;11.876;2023-02-28T10:43:22;5.13;;;3.53;;
14584;SDS011;7379;51.506;11.876;2023-02-28T10:45:55;4.30;;;3.60;;
14584;SDS011;7379;51.506;11.876;2023-02-28T10:48:26;4.83;;;3.83;;
14584;SDS011;7379;51.506;11.876;2023-02-28T10:50:58;5.23;;;3.97;;
14584;SDS011;7379;51.506;11.876;2023-02-28T10:53:30;5.07;;;3.80;;
14584;SDS011;7379;51.506;11.876;2023-02-28T10:55:59;4.53;;;3.90;;
14584;SDS011;7379;51.506;11.876;2023-02-28T10:58:29;5.57;;;3.80;;
14584;SDS011;7379;51.506;11.876;2023-02-28T11:00:57;5.20;;;4.00;;
14584;SDS011;7379;51.506;11.876;2023-02-28T11:03:29;4.60;;;4.10;;
14584;SDS011;7379;51.506;11.876;2023-02-28T11:06:03;6.87;;;4.13;;
14584;SDS011;7379;51.506;11.876;2023-02-28T11:08:32;5.30;;;4.20;;
14584;SDS011;7379;51.506;11.876;2023-02-28T11:11:00;4.93;;;4.20;;
14584;SDS011;7379;51.506;11.876;2023-02-28T11:13:32;5.47;;;4.10;;
14584;SDS011;7379;51.506;11.876;2023-02-28T11:16:02;5.83;;;4.23;;
14584;SDS011;7379;51.506;11.876;2023-02-28T11:18:33;5.97;;;4.17;;
14584;SDS011;7379;51.506;11.876;2023-02-28T11:21:08;5.17;;;4.10;;
14584;SDS011;7379;51.506;11.876;2023-02-28T11:23:39;4.73;;;4.17;;
14584;SDS011;7379;51.506;11.876;2023-02-28T11:26:07;4.77;;;4.17;;
14584;SDS011;7379;51.506;11.876;2023-02-28T11:28:36;7.23;;;4.53;;
14584;SDS011;7379;51.506;11.876;2023-02-28T11:31:08;6.00;;;4.67;;
14584;SDS011;7379;51.506;11.876;2023-02-28T11:33:44;4.70;;;4.10;;
14584;SDS011;7379;51.506;11.876;2023-02-28T11:36:16;6.30;;;4.57;;
14584;SDS011;7379;51.506;11.876;2023-02-28T11:38:45;5.33;;;4.63;;
14584;SDS011;7379;51.506;11.876;2023-02-28T11:44:05;5.10;;;4.60;;
14584;SDS011;7379;51.506;11.876;2023-02-28T11:46:45;5.13;;;4.50;;
14584;SDS011;7379;51.506;11.876;2023-02-28T11:49:22;5.17;;;4.30;;
14584;SDS011;7379;51.506;11.876;2023-02-28T11:52:02;6.13;;;4.43;;
14584;SDS011;7379;51.506;11.876;2023-02-28T11:54:47;5.20;;;4.43;;
14584;SDS011;7379;51.506;11.876;2023-02-28T11:57:28;5.83;;;4.30;;
14584;SDS011;7379;51.506;11.876;2023-02-28T12:00:19;5.50;;;4.60;;
14584;SDS011;7379;51.506;11.876;2023-02-28T12:03:00;5.60;;;4.83;;
14584;SDS011;7379;51.506;11.876;2023-02-28T12:05:34;5.40;;;4.60;;
14584;SDS011;7379;51.506;11.876;2023-02-28T12:08:15;5.97;;;4.90;;
14584;SDS011;7379;51.506;11.876;2023-02-28T12:10:53;6.57;;;4.87;;
14584;SDS011;7379;51.506;11.876;2023-02-28T12:13:29;5.23;;;4.53;;
14584;SDS011;7379;51.506;11.876;2023-02-28T12:16:12;6.43;;;4.93;;
14584;SDS011;7379;51.506;11.876;2023-02-28T12:18:53;5.30;;;4.73;;
14584;SDS011;7379;51.506;11.876;2023-02-28T12:21:35;5.60;;;4.67;;
14584;SDS011;7379;51.506;11.876;2023-02-28T12:24:17;6.33;;;5.07;;
14584;SDS011;7379;51.506;11.876;2023-02-28T12:27:05;6.87;;;5.30;;
14584;SDS011;7379;51.506;11.876;2023-02-28T12:29:38;6.73;;;5.00;;
14584;SDS011;7379;51.506;11.876;2023-02-28T12:32:12;6.73;;;4.90;;
14584;SDS011;7379;51.506;11.876;2023-02-28T12:34:44;6.40;;;4.90;;
14584;SDS011;7379;51.506;11.876;2023-02-28T12:37:15;6.83;;;5.13;;
14584;SDS011;7379;51.506;11.876;2023-02-28T12:39:50;6.43;;;4.93;;
14584;SDS011;7379;51.506;11.876;2023-02-28T12:42:24;6.00;;;4.80;;
14584;SDS011;7379;51.506;11.876;2023-02-28T12:44:56;5.77;;;4.97;;
14584;SDS011;7379;51.506;11.876;2023-02-28T12:47:25;5.43;;;4.83;;
14584;SDS011;7379;51.506;11.876;2023-02-28T12:49:53;5.80;;;4.50;;
14584;SDS011;7379;51.506;11.876;2023-02-28T12:52:25;5.20;;;4.57;;
14584;SDS011;7379;51.506;11.876;2023-02-28T12:55:00;5.80;;;5.00;;
14584;SDS011;7379;51.506;11.876;2023-02-28T12:57:33;6.20;;;4.80;;
14584;SDS011;7379;51.506;11.876;2023-02-28T13:00:08;5.80;;;5.20;;
14584;SDS011;7379;51.506;11.876;2023-02-28T13:05:46;5.77;;;4.83;;
14584;SDS011;7379;51.506;11.876;2023-02-28T13:08:39;6.10;;;4.70;;
14584;SDS011;7379;51.506;11.876;2023-02-28T13:11:29;5.10;;;4.60;;
14584;SDS011;7379;51.506;11.876;2023-02-28T13:13:59;5.17;;;4.67;;
14584;SDS011;7379;51.506;11.876;2023-02-28T13:16:28;5.80;;;4.57;;
14584;SDS011;7379;51.506;11.876;2023-02-28T13:19:17;5.67;;;4.97;;
14584;SDS011;7379;51.506;11.876;2023-02-28T13:21:46;6.17;;;5.00;;
14584;SDS011;7379;51.506;11.876;2023-02-28T13:24:36;5.63;;;4.70;;
14584;SDS011;7379;51.506;11.876;2023-02-28T13:27:20;5.67;;;4.80;;
14584;SDS011;7379;51.506;11.876;2023-02-28T13:29:50;5.60;;;4.80;;
14584;SDS011;7379;51.506;11.876;2023-02-28T13:32:19;6.27;;;4.90;;
14584;SDS011;7379;51.506;11.876;2023-02-28T13:44:05;6.13;;;4.97;;
14584;SDS011;7379;51.506;11.876;2023-02-28T13:46:35;6.57;;;4.70;;
14584;SDS011;7379;51.506;11.876;2023-02-28T13:49:24;6.50;;;4.93;;
14584;SDS011;7379;51.506;11.876;2023-02-28T13:51:53;5.83;;;5.13;;
14584;SDS011;7379;51.506;11.876;2023-02-28T13:54:33;7.07;;;5.00;;
14584;SDS011;7379;51.506;11.876;2023-02-28T13:57:12;5.30;;;4.57;;
14584;SDS011;7379;51.506;11.876;2023-02-28T14:00:05;6.30;;;5.07;;
14584;SDS011;7379;51.506;11.876;2023-02-28T14:02:48;6.37;;;4.63;;
14584;SDS011;7379;51.506;11.876;2023-02-28T14:05:29;5.20;;;4.67;;
14584;SDS011;7379;51.506;11.876;2023-02-28T14:07:59;6.53;;;4.80;;
14584;SDS011;7379;51.506;11.876;2023-02-28T14:10:31;5.83;;;5.03;;
14584;SDS011;7379;51.506;11.876;2023-02-28T14:13:11;6.83;;;5.00;;
14584;SDS011;7379;51.506;11.876;2023-02-28T14:15:43;6.40;;;5.00;;
14584;SDS011;7379;51.506;11.876;2023-02-28T14:18:16;5.77;;;4.90;;
14584;SDS011;7379;51.506;11.876;2023-02-28T14:20:46;6.10;;;5.13;;
14584;SDS011;7379;51.506;11.876;2023-02-28T14:23:18;6.23;;;5.00;;
14584;SDS011;7379;51.506;11.876;2023-02-28T14:25:54;5.57;;;5.03;;
14584;SDS011;7379;51.506;11.876;2023-02-28T14:28:36;5.97;;;4.97;;
14584;SDS011;7379;51.506;11.876;2023-02-28T14:31:18;5.27;;;4.77;;
14584;SDS011;7379;51.506;11.876;2023-02-28T14:33:57;5.47;;;4.40;;
14584;SDS011;7379;51.506;11.876;2023-02-28T14:36:31;7.23;;;5.00;;
14584;SDS011;7379;51.506;11.876;2023-02-28T14:39:01;6.23;;;4.67;;
14584;SDS011;7379;51.506;11.876;2023-02-28T14:41:33;5.43;;;4.93;;
14584;SDS011;7379;51.506;11.876;2023-02-28T14:44:12;7.20;;;5.33;;
14584;SDS011;7379;51.506;11.876;2023-02-28T14:46:42;5.47;;;4.87;;
14584;SDS011;7379;51.506;11.876;2023-02-28T14:49:13;5.90;;;4.83;;
14584;SDS011;7379;51.506;11.876;2023-02-28T14:51:43;5.67;;;4.87;;
14584;SDS011;7379;51.506;11.876;2023-02-28T14:54:13;5.87;;;4.97;;
14584;SDS011;7379;51.506;11.876;2023-02-28T14:56:42;5.53;;;4.83;;
14584;SDS011;7379;51.506;11.876;2023-02-28T14:59:23;5.83;;;4.60;;
14584;SDS011;7379;51.506;11.876;2023-02-28T15:01:53;5.97;;;4.80;;
14584;SDS011;7379;51.506;11.876;2023-02-28T15:04:45;5.50;;;4.70;;
14584;SDS011;7379;51.506;11.876;2023-02-28T15:07:19;6.60;;;4.93;;
14584;SDS011;7379;51.506;11.876;2023-02-28T15:10:05;6.50;;;4.63;;
14584;SDS011;7379;51.506;11.876;2023-02-28T15:12:34;5.50;;;4.60;;
14584;SDS011;7379;51.506;11.876;2023-02-28T15:15:02;5.70;;;4.53;;
14584;SDS011;7379;51.506;11.876;2023-02-28T15:17:30;6.00;;;4.50;;
14584;SDS011;7379;51.506;11.876;2023-02-28T15:19:57;5.77;;;4.40;;
14584;SDS011;7379;51.506;11.876;2023-02-28T15:22:27;5.80;;;4.30;;
14584;SDS011;7379;51.506;11.876;2023-02-28T15:24:56;5.33;;;4.47;;
14584;SDS011;7379;51.506;11.876;2023-02-28T15:27:25;5.23;;;4.60;;
14584;SDS011;7379;51.506;11.876;2023-02-28T15:29:56;6.27;;;4.50;;